createdAt,value
2023-01-08T00:01:51.963Z,98031.15
2023-01-08T00:04:20.334Z,98027.40
2023-01-08T00:06:48.395Z,98027.61
2023-01-08T00:09:16.387Z,98026.76
2023-01-08T00:11:44.732Z,98026.15
2023-01-08T00:14:12.908Z,98022.92
2023-01-08T00:16:41.152Z,98020.93
2023-01-08T00:19:10.920Z,98020.02
2023-01-08T00:21:39.753Z,98019.48
2023-01-08T00:24:07.908Z,98017.21
2023-01-08T00:26:36.313Z,98021.04
2023-01-08T00:29:04.727Z,98022.08
2023-01-08T00:31:32.810Z,98025.54
2023-01-08T00:34:00.897Z,98026.90
2023-01-08T00:36:28.956Z,98026.02
2023-01-08T00:38:59.679Z,98027.30
2023-01-08T00:41:27.736Z,98027.06
2023-01-08T00:43:55.742Z,98030.61
2023-01-08T00:46:23.898Z,98037.84
2023-01-08T00:48:52.021Z,98042.52
2023-01-08T00:51:20.111Z,98042.48
2023-01-08T00:53:48.130Z,98043.99
2023-01-08T00:56:16.310Z,98045.02
2023-01-08T00:58:44.535Z,98046.95
2023-01-08T01:01:14.724Z,98043.52
2023-01-08T01:03:43.463Z,98039.57
2023-01-08T01:06:13.978Z,98040.75
2023-01-08T01:08:43.451Z,98040.91
2023-01-08T01:11:22.415Z,98042.46
2023-01-08T01:13:51.441Z,98041.91
2023-01-08T01:16:19.489Z,98042.54
2023-01-08T01:18:47.665Z,98041.80
2023-01-08T01:21:30.590Z,98039.52
2023-01-08T01:24:01.022Z,98037.98
2023-01-08T01:26:29.816Z,98034.92
2023-01-08T01:28:58.758Z,98035.80
2023-01-08T01:31:29.675Z,98033.22
2023-01-08T01:33:57.941Z,98028.35
2023-01-08T01:36:26.727Z,98023.09
2023-01-08T01:38:57.221Z,98017.00
2023-01-08T01:41:27.271Z,98015.77
2023-01-08T01:44:01.281Z,98015.79
2023-01-08T01:46:37.763Z,98014.40
2023-01-08T01:49:12.006Z,98008.52
2023-01-08T01:51:45.927Z,98003.27
2023-01-08T01:54:14.456Z,98002.60
2023-01-08T01:56:44.424Z,98004.06
2023-01-08T01:59:13.689Z,98001.55
2023-01-08T02:01:43.058Z,97997.64
2023-01-08T02:04:15.008Z,97989.59
2023-01-08T02:07:25.662Z,97985.15
2023-01-08T02:10:15.268Z,97985.30
2023-01-08T02:12:53.354Z,97984.41
2023-01-08T02:15:33.426Z,97979.73
2023-01-08T02:18:05.672Z,97975.75
2023-01-08T02:20:41.724Z,97974.53
2023-01-08T02:23:18.901Z,97977.77
2023-01-08T02:26:11.986Z,97974.34
2023-01-08T02:29:05.967Z,97974.42
2023-01-08T02:31:36.224Z,97974.58
2023-01-08T02:34:05.233Z,97974.14
2023-01-08T02:36:33.453Z,97970.48
2023-01-08T02:39:06.769Z,97970.67
2023-01-08T02:41:53.620Z,97972.54
2023-01-08T02:44:34.722Z,97972.47
2023-01-08T02:47:08.064Z,97975.42
2023-01-08T02:49:41.722Z,97977.19
2023-01-08T02:52:15.318Z,97976.69
2023-01-08T02:54:47.254Z,97980.85
2023-01-08T02:57:17.428Z,97974.84
2023-01-08T02:59:48.447Z,97969.27
2023-01-08T03:02:17.648Z,97972.50
2023-01-08T03:05:02.044Z,97969.55
2023-01-08T03:07:30.401Z,97970.41
2023-01-08T03:09:58.402Z,97971.83
2023-01-08T03:12:46.412Z,97966.27
2023-01-08T03:15:23.036Z,97967.48
2023-01-08T03:17:55.186Z,97965.50
2023-01-08T03:20:25.831Z,97961.42
2023-01-08T03:22:57.317Z,97959.64
2023-01-08T03:25:29.549Z,97959.39
2023-01-08T03:28:02.616Z,97962.83
2023-01-08T03:30:31.413Z,97957.94
2023-01-08T03:33:01.559Z,97954.52
2023-01-08T03:35:32.052Z,97955.67
2023-01-08T03:38:27.590Z,97954.98
2023-01-08T03:41:01.143Z,97962.00
2023-01-08T03:43:30.032Z,97963.35
2023-01-08T03:46:03.196Z,97967.01
2023-01-08T03:48:35.513Z,97969.79
2023-01-08T03:51:03.699Z,97971.19
2023-01-08T03:53:32.022Z,97969.02
2023-01-08T03:56:00.202Z,97965.11
2023-01-08T03:58:28.112Z,97962.21
2023-01-08T04:00:56.273Z,97963.13
2023-01-08T04:03:25.052Z,97962.15
2023-01-08T04:05:53.256Z,97964.65
2023-01-08T04:08:21.481Z,97965.74
2023-01-08T04:10:49.619Z,97965.27
2023-01-08T04:13:17.779Z,97963.42
2023-01-08T04:15:50.375Z,97963.48
2023-01-08T04:18:18.990Z,97965.05
2023-01-08T04:20:47.964Z,97966.77
2023-01-08T04:23:16.797Z,97962.27
2023-01-08T04:25:44.833Z,97958.30
2023-01-08T04:28:12.956Z,97959.66
2023-01-08T04:30:41.073Z,97956.99
2023-01-08T04:33:09.321Z,97960.92
2023-01-08T04:35:37.988Z,97957.77
2023-01-08T04:38:06.129Z,97953.08
2023-01-08T04:40:34.531Z,97956.02
2023-01-08T04:43:02.587Z,97953.90
2023-01-08T04:45:30.563Z,97953.10
2023-01-08T04:47:59.713Z,97950.70
2023-01-08T04:50:28.138Z,97953.46
2023-01-08T04:52:58.984Z,97953.92
2023-01-08T04:55:27.023Z,97952.84
2023-01-08T04:57:55.067Z,97948.86
2023-01-08T05:00:25.879Z,97946.95
2023-01-08T05:02:54.900Z,97946.95
2023-01-08T05:05:23.263Z,97942.20
2023-01-08T05:07:51.221Z,97940.25
2023-01-08T05:10:19.478Z,97941.27
2023-01-08T05:12:47.452Z,97939.91
2023-01-08T05:15:15.665Z,97933.73
2023-01-08T05:17:43.879Z,97934.95
2023-01-08T05:20:12.287Z,97939.95
2023-01-08T05:22:40.514Z,97936.38
2023-01-08T05:25:08.928Z,97936.88
2023-01-08T05:27:37.101Z,97933.22
2023-01-08T05:30:06.341Z,97936.33
2023-01-08T05:32:34.441Z,97937.39
2023-01-08T05:35:02.676Z,97937.71
2023-01-08T05:37:30.713Z,97938.77
2023-01-08T05:39:58.799Z,97936.39
2023-01-08T05:42:27.003Z,97935.40
2023-01-08T05:44:55.069Z,97932.78
2023-01-08T05:47:23.139Z,97932.56
2023-01-08T05:49:51.216Z,97934.09
2023-01-08T05:52:19.487Z,97935.61
2023-01-08T05:54:47.462Z,97937.63
2023-01-08T05:57:15.578Z,97932.89
2023-01-08T05:59:43.780Z,97932.64
2023-01-08T06:02:12.666Z,97934.13
2023-01-08T06:04:41.033Z,97934.27
2023-01-08T06:07:09.364Z,97935.27
2023-01-08T06:09:37.460Z,97937.99
2023-01-08T06:12:05.805Z,97940.91
2023-01-08T06:14:33.841Z,97941.39
2023-01-08T06:17:01.996Z,97942.33
2023-01-08T06:19:30.165Z,97941.07
2023-01-08T06:21:58.446Z,97941.02
2023-01-08T06:24:26.717Z,97942.31
2023-01-08T06:26:54.938Z,97944.29
2023-01-08T06:29:23.023Z,97944.92
2023-01-08T06:31:51.200Z,97944.50
2023-01-08T06:34:19.593Z,97947.39
2023-01-08T06:36:47.770Z,97944.33
2023-01-08T06:39:15.586Z,97946.85
2023-01-08T06:41:44.170Z,97940.73
2023-01-08T06:44:12.902Z,97942.13
2023-01-08T06:46:41.035Z,97946.88
2023-01-08T06:49:10.172Z,97950.26
2023-01-08T06:51:38.561Z,97952.56
2023-01-08T06:54:06.740Z,97953.29
2023-01-08T06:56:48.782Z,97953.81
2023-01-08T06:59:20.851Z,97954.41
2023-01-08T07:01:50.110Z,97954.58
2023-01-08T07:04:19.389Z,97955.46
2023-01-08T07:06:48.468Z,97958.30
2023-01-08T07:09:17.341Z,97960.60
2023-01-08T07:11:45.329Z,97965.34
2023-01-08T07:14:13.324Z,97966.33
2023-01-08T07:16:41.365Z,97963.61
2023-01-08T07:19:09.467Z,97963.02
2023-01-08T07:21:37.664Z,97967.50
2023-01-08T07:24:07.786Z,97970.64
2023-01-08T07:26:35.683Z,97970.83
2023-01-08T07:29:03.847Z,97974.81
2023-01-08T07:31:32.078Z,97978.81
2023-01-08T07:34:00.154Z,97979.02
2023-01-08T07:36:28.197Z,97979.90
2023-01-08T07:38:56.303Z,97983.06
2023-01-08T07:41:24.320Z,97982.60
2023-01-08T07:43:52.536Z,97984.36
2023-01-08T07:46:21.067Z,97980.21
2023-01-08T07:48:49.949Z,97979.55
2023-01-08T07:51:18.165Z,97984.67
2023-01-08T07:53:46.390Z,97984.04
2023-01-08T07:56:14.516Z,97987.53
2023-01-08T07:58:42.670Z,97991.36
2023-01-08T08:01:12.428Z,97991.61
2023-01-08T08:03:42.071Z,97993.73
2023-01-08T08:06:10.642Z,97992.27
2023-01-08T08:08:40.275Z,97994.93
2023-01-08T08:11:10.586Z,97991.73
2023-01-08T08:13:42.758Z,97992.18
2023-01-08T08:16:12.306Z,97987.52
2023-01-08T08:18:40.428Z,97991.09
2023-01-08T08:21:08.737Z,97995.80
2023-01-08T08:23:37.120Z,97998.23
2023-01-08T08:26:05.725Z,97999.12
2023-01-08T08:28:33.941Z,97998.73
2023-01-08T08:31:02.289Z,97997.92
2023-01-08T08:33:30.524Z,97997.18
2023-01-08T08:35:58.719Z,97998.30
2023-01-08T08:38:27.123Z,97997.83
2023-01-08T08:40:55.490Z,97996.13
2023-01-08T08:43:23.665Z,97996.73
2023-01-08T08:45:51.924Z,97991.81
2023-01-08T08:48:19.878Z,97989.55
2023-01-08T08:50:47.912Z,97993.63
2023-01-08T08:53:16.419Z,97997.28
2023-01-08T08:55:44.497Z,97994.70
2023-01-08T08:58:13.817Z,97991.83
2023-01-08T09:00:43.301Z,97988.33
2023-01-08T09:03:14.209Z,97981.36
2023-01-08T09:05:45.648Z,97976.86
2023-01-08T09:08:14.031Z,97977.64
2023-01-08T09:10:42.718Z,97976.16
2023-01-08T09:13:11.945Z,97976.77
2023-01-08T09:15:40.047Z,97975.94
2023-01-08T09:18:08.428Z,97974.08
2023-01-08T09:20:37.085Z,97972.40
2023-01-08T09:23:05.473Z,97970.31
2023-01-08T09:25:33.613Z,97969.55
2023-01-08T09:28:06.848Z,97966.13
2023-01-08T09:30:35.942Z,97966.88
2023-01-08T09:33:05.361Z,97965.41
2023-01-08T09:35:34.399Z,97959.95
2023-01-08T09:38:03.307Z,97956.17
2023-01-08T09:40:40.784Z,97955.39
2023-01-08T09:43:18.263Z,97953.57
2023-01-08T09:45:52.064Z,97951.15
2023-01-08T09:48:26.196Z,97946.56
2023-01-08T09:50:54.747Z,97945.46
2023-01-08T09:53:23.425Z,97945.75
2023-01-08T09:56:09.117Z,97945.15
2023-01-08T09:58:53.847Z,97949.23
2023-01-08T10:01:25.638Z,97942.30
2023-01-08T10:04:03.624Z,97938.67
2023-01-08T10:07:25.868Z,97934.92
2023-01-08T10:09:55.653Z,97934.14
2023-01-08T10:12:31.077Z,97929.21
2023-01-08T10:15:03.655Z,97921.23
2023-01-08T10:17:38.761Z,97918.10
2023-01-08T10:20:17.795Z,97915.52
2023-01-08T10:22:48.234Z,97918.66
2023-01-08T10:25:20.306Z,97918.17
2023-01-08T10:27:52.205Z,97916.67
2023-01-08T10:30:35.046Z,97908.95
2023-01-08T10:33:06.663Z,97905.40
2023-01-08T10:35:38.999Z,97900.03
2023-01-08T10:38:07.520Z,97894.46
2023-01-08T10:40:38.933Z,97894.11
2023-01-08T10:43:21.550Z,97892.35
2023-01-08T10:46:08.305Z,97888.36
2023-01-08T10:48:48.879Z,97887.55
2023-01-08T10:51:24.558Z,97883.04
2023-01-08T10:53:54.527Z,97882.46
2023-01-08T10:56:26.183Z,97881.48
2023-01-08T10:58:55.548Z,97880.36
2023-01-08T11:01:29.150Z,97879.83
2023-01-08T11:04:01.512Z,97880.27
2023-01-08T11:06:36.969Z,97881.39
2023-01-08T11:09:14.379Z,97877.22
2023-01-08T11:11:42.783Z,97876.32
2023-01-08T11:14:30.813Z,97876.91
2023-01-08T11:16:59.767Z,97875.13
2023-01-08T11:19:31.886Z,97870.27
2023-01-08T11:22:08.838Z,97872.92
2023-01-08T11:24:42.564Z,97874.11
2023-01-08T11:27:33.456Z,97872.73
2023-01-08T11:30:12.609Z,97868.96
2023-01-08T11:32:56.460Z,97864.02
2023-01-08T11:35:38.978Z,97867.55
2023-01-08T11:38:11.986Z,97863.98
2023-01-08T11:41:09.905Z,97854.72
2023-01-08T11:44:00.042Z,97850.13
2023-01-08T11:46:46.344Z,97852.41
2023-01-08T11:49:17.427Z,97849.54
2023-01-08T11:52:23.812Z,97851.50
2023-01-08T11:55:12.239Z,97852.92
2023-01-08T11:58:23.309Z,97852.60
2023-01-08T12:00:57.821Z,97855.56
2023-01-08T12:03:34.904Z,97854.36
2023-01-08T12:06:19.457Z,97851.48
2023-01-08T12:09:03.353Z,97845.98
2023-01-08T12:11:38.823Z,97844.63
2023-01-08T12:14:18.623Z,97843.43
2023-01-08T12:17:24.953Z,97848.19
2023-01-08T12:20:02.441Z,97850.02
2023-01-08T12:22:33.383Z,97848.67
2023-01-08T12:25:38.961Z,97847.29
2023-01-08T12:28:38.452Z,97846.55
2023-01-08T12:31:25.959Z,97846.23
2023-01-08T12:34:05.632Z,97839.56
2023-01-08T12:36:42.965Z,97833.73
2023-01-08T12:39:22.458Z,97830.98
2023-01-08T12:41:54.695Z,97835.33
2023-01-08T12:44:29.290Z,97833.91
2023-01-08T12:47:01.760Z,97829.07
2023-01-08T12:49:43.165Z,97829.59
2023-01-08T12:52:31.078Z,97828.20
2023-01-08T12:55:10.022Z,97828.89
2023-01-08T12:57:49.189Z,97825.79
2023-01-08T13:00:17.143Z,97826.83
2023-01-08T13:03:02.311Z,97827.90
2023-01-08T13:05:30.507Z,97829.83
2023-01-08T13:08:19.965Z,97827.34
2023-01-08T13:10:51.909Z,97822.17
2023-01-08T13:13:32.915Z,97816.48
2023-01-08T13:16:17.399Z,97812.70
2023-01-08T13:19:02.731Z,97812.85
2023-01-08T13:21:33.903Z,97813.69
2023-01-08T13:24:24.254Z,97813.50
2023-01-08T13:26:53.797Z,97811.02
2023-01-08T13:29:27.688Z,97810.30
2023-01-08T13:31:56.382Z,97810.30
2023-01-08T13:34:40.057Z,97811.31
2023-01-08T13:37:16.399Z,97806.79
2023-01-08T13:39:51.811Z,97807.49
2023-01-08T13:42:29.376Z,97812.20
2023-01-08T13:45:01.199Z,97809.30
2023-01-08T13:47:34.201Z,97811.41
2023-01-08T13:50:18.188Z,97811.73
2023-01-08T13:52:49.179Z,97808.30
2023-01-08T13:55:24.669Z,97806.67
2023-01-08T13:57:56.081Z,97808.01
2023-01-08T14:00:42.864Z,97802.86
2023-01-08T14:03:30.595Z,97801.58
2023-01-08T14:06:10.794Z,97806.87
2023-01-08T14:08:58.929Z,97803.41
2023-01-08T14:11:44.824Z,97803.20
2023-01-08T14:14:13.880Z,97800.73
2023-01-08T14:16:42.350Z,97805.75
2023-01-08T14:19:19.986Z,97805.77
2023-01-08T14:21:50.674Z,97803.90
2023-01-08T14:24:20.340Z,97803.73
2023-01-08T14:26:54.658Z,97804.80
2023-01-08T14:29:26.609Z,97810.23
2023-01-08T14:31:57.671Z,97814.55
2023-01-08T14:34:28.707Z,97812.71
2023-01-08T14:36:57.409Z,97811.67
2023-01-08T14:39:31.691Z,97814.06
2023-01-08T14:42:35.347Z,97812.37
2023-01-08T14:45:18.774Z,97805.78
2023-01-08T14:47:50.233Z,97805.28
2023-01-08T14:50:34.022Z,97809.13
2023-01-08T14:53:24.097Z,97807.92
2023-01-08T14:55:55.505Z,97808.12
2023-01-08T14:58:36.553Z,97813.66
2023-01-08T15:01:18.260Z,97815.02
2023-01-08T15:03:49.111Z,97811.40
2023-01-08T15:06:26.209Z,97815.38
2023-01-08T15:08:54.636Z,97809.86
2023-01-08T15:11:24.045Z,97807.41
2023-01-08T15:13:54.255Z,97799.13
2023-01-08T15:16:45.836Z,97796.18
2023-01-08T15:19:20.363Z,97802.30
2023-01-08T15:21:50.565Z,97803.58
2023-01-08T15:24:34.541Z,97805.69
2023-01-08T15:27:10.457Z,97806.44
2023-01-08T15:30:00.896Z,97809.09
2023-01-08T15:32:35.021Z,97805.27
2023-01-08T15:35:14.740Z,97799.05
2023-01-08T15:37:43.320Z,97796.48
2023-01-08T15:40:13.000Z,97796.48
2023-01-08T15:42:59.891Z,97789.89
2023-01-08T15:45:30.021Z,97784.70
2023-01-08T15:47:58.445Z,97787.48
2023-01-08T15:50:27.944Z,97789.04
2023-01-08T15:53:01.278Z,97788.23
2023-01-08T15:55:29.784Z,97782.23
2023-01-08T15:57:58.924Z,97781.20
2023-01-08T16:00:27.650Z,97776.18
2023-01-08T16:02:56.332Z,97774.15
2023-01-08T16:05:26.289Z,97776.43
2023-01-08T16:07:54.310Z,97777.13
2023-01-08T16:10:23.268Z,97776.63
2023-01-08T16:12:52.026Z,97774.91
2023-01-08T16:15:20.367Z,97773.02
2023-01-08T16:17:48.924Z,97772.14
2023-01-08T16:20:18.331Z,97775.42
2023-01-08T16:22:46.399Z,97774.70
2023-01-08T16:25:14.914Z,97774.33
2023-01-08T16:27:43.854Z,97774.83
2023-01-08T16:30:16.998Z,97774.59
2023-01-08T16:32:46.920Z,97774.36
2023-01-08T16:35:15.157Z,97775.04
2023-01-08T16:37:43.280Z,97779.88
2023-01-08T16:40:12.411Z,97775.04
2023-01-08T16:42:40.549Z,97777.63
2023-01-08T16:45:09.072Z,97773.09
2023-01-08T16:47:39.111Z,97772.70
2023-01-08T16:50:08.788Z,97766.30
2023-01-08T16:52:39.085Z,97767.73
2023-01-08T16:55:07.741Z,97762.23
2023-01-08T16:57:35.997Z,97763.49
2023-01-08T17:00:06.015Z,97764.02
2023-01-08T17:02:34.207Z,97759.18
2023-01-08T17:05:02.718Z,97759.53
2023-01-08T17:07:31.042Z,97762.69
2023-01-08T17:09:59.006Z,97759.41
2023-01-08T17:12:27.059Z,97758.01
2023-01-08T17:14:55.084Z,97756.38
2023-01-08T17:17:23.112Z,97758.73
2023-01-08T17:19:51.105Z,97763.36
2023-01-08T17:22:19.121Z,97764.91
2023-01-08T17:24:47.410Z,97764.55
2023-01-08T17:27:15.940Z,97765.04
2023-01-08T17:29:44.303Z,97766.23
2023-01-08T17:32:14.305Z,97762.77
2023-01-08T17:34:42.577Z,97756.90
2023-01-08T17:37:10.654Z,97752.90
2023-01-08T17:39:38.967Z,97750.80
2023-01-08T17:42:25.195Z,97753.42
2023-01-08T17:44:55.987Z,97752.77
2023-01-08T17:47:25.523Z,97751.06
2023-01-08T17:49:56.260Z,97751.92
2023-01-08T17:52:25.980Z,97754.53
2023-01-08T17:54:54.238Z,97754.36
2023-01-08T17:57:23.016Z,97745.31
2023-01-08T17:59:51.661Z,97751.98
2023-01-08T18:02:20.387Z,97750.90
2023-01-08T18:04:49.379Z,97750.67
2023-01-08T18:07:18.516Z,97751.14
2023-01-08T18:09:46.723Z,97749.23
2023-01-08T18:12:14.898Z,97745.09
2023-01-08T18:14:44.225Z,97745.59
2023-01-08T18:17:12.347Z,97745.02
2023-01-08T18:19:40.885Z,97736.20
2023-01-08T18:22:09.805Z,97735.50
2023-01-08T18:24:38.354Z,97735.00
2023-01-08T18:27:06.647Z,97732.61
2023-01-08T18:29:34.867Z,97733.02
2023-01-08T18:32:03.109Z,97734.24
2023-01-08T18:34:31.477Z,97738.71
2023-01-08T18:37:00.074Z,97737.89
2023-01-08T18:39:29.972Z,97740.99
2023-01-08T18:42:17.128Z,97740.64
2023-01-08T18:44:45.334Z,97743.22
2023-01-08T18:47:15.087Z,97738.91
2023-01-08T18:49:43.633Z,97731.65
2023-01-08T18:52:14.199Z,97734.40
2023-01-08T18:54:42.592Z,97727.46
2023-01-08T18:57:10.820Z,97726.41
2023-01-08T18:59:39.078Z,97724.16
2023-01-08T19:02:08.515Z,97723.60
2023-01-08T19:04:36.911Z,97726.34
2023-01-08T19:07:05.885Z,97726.48
2023-01-08T19:09:33.969Z,97719.02
2023-01-08T19:12:02.144Z,97720.55
2023-01-08T19:14:30.760Z,97714.33
2023-01-08T19:16:59.437Z,97711.52
2023-01-08T19:19:28.852Z,97710.77
2023-01-08T19:21:57.543Z,97711.10
2023-01-08T19:24:25.779Z,97710.02
2023-01-08T19:26:53.897Z,97706.17
2023-01-08T19:29:22.049Z,97708.73
2023-01-08T19:31:51.057Z,97700.98
2023-01-08T19:34:19.392Z,97698.73
2023-01-08T19:36:47.523Z,97706.63
2023-01-08T19:39:15.678Z,97705.94
2023-01-08T19:42:02.241Z,97702.45
2023-01-08T19:44:30.403Z,97699.13
2023-01-08T19:46:58.939Z,97703.90
2023-01-08T19:49:27.018Z,97707.47
2023-01-08T19:51:55.308Z,97706.77
2023-01-08T19:54:26.032Z,97712.80
2023-01-08T19:56:55.054Z,97710.58
2023-01-08T19:59:23.453Z,97715.39
2023-01-08T20:01:51.852Z,97715.52
2023-01-08T20:04:20.135Z,97711.74
2023-01-08T20:06:48.603Z,97704.52
2023-01-08T20:09:16.714Z,97701.98
2023-01-08T20:11:45.014Z,97705.13
2023-01-08T20:14:12.992Z,97699.83
2023-01-08T20:16:41.258Z,97701.95
2023-01-08T20:19:10.858Z,97696.14
2023-01-08T20:21:38.898Z,97694.80
2023-01-08T20:24:12.792Z,97694.16
2023-01-08T20:26:45.715Z,97690.57
2023-01-08T20:29:16.115Z,97692.85
2023-01-08T20:31:44.370Z,97695.08
2023-01-08T20:34:15.678Z,97690.39
2023-01-08T20:36:44.795Z,97684.11
2023-01-08T20:39:15.762Z,97672.34
2023-01-08T20:41:50.318Z,97676.61
2023-01-08T20:44:29.165Z,97678.80
2023-01-08T20:46:57.336Z,97673.26
2023-01-08T20:49:26.930Z,97668.42
2023-01-08T20:51:59.905Z,97670.27
2023-01-08T20:54:30.437Z,97673.63
2023-01-08T20:57:00.259Z,97672.73
2023-01-08T20:59:28.848Z,97670.67
2023-01-08T21:01:57.666Z,97665.15
2023-01-08T21:04:25.957Z,97668.61
2023-01-08T21:06:54.420Z,97669.48
2023-01-08T21:09:22.562Z,97664.80
2023-01-08T21:11:50.969Z,97668.19
2023-01-08T21:14:19.446Z,97672.83
2023-01-08T21:16:47.698Z,97671.64
2023-01-08T21:19:15.704Z,97673.36
2023-01-08T21:21:43.922Z,97670.78
2023-01-08T21:24:13.226Z,97667.52
2023-01-08T21:26:41.534Z,97668.05
2023-01-08T21:29:11.368Z,97672.15
2023-01-08T21:31:40.325Z,97670.02
2023-01-08T21:34:11.969Z,97671.70
2023-01-08T21:36:40.061Z,97664.95
2023-01-08T21:39:08.298Z,97661.67
2023-01-08T21:41:55.026Z,97657.67
2023-01-08T21:44:43.885Z,97653.70
2023-01-08T21:47:16.851Z,97652.48
2023-01-08T21:49:46.163Z,97652.14
2023-01-08T21:52:33.400Z,97645.73
2023-01-08T21:55:02.432Z,97644.58
2023-01-08T21:57:30.561Z,97640.48
2023-01-08T21:59:58.634Z,97636.73
2023-01-08T22:02:26.658Z,97639.46
2023-01-08T22:04:56.463Z,97635.83
2023-01-08T22:07:25.749Z,97630.84
2023-01-08T22:09:54.045Z,97633.55
2023-01-08T22:12:23.327Z,97632.48
2023-01-08T22:14:55.737Z,97632.79
2023-01-08T22:17:25.356Z,97627.92
2023-01-08T22:19:53.859Z,97624.78
2023-01-08T22:22:21.842Z,97622.83
2023-01-08T22:24:53.117Z,97619.14
2023-01-08T22:27:22.284Z,97615.85
2023-01-08T22:29:50.496Z,97613.92
2023-01-08T22:32:18.814Z,97608.20
2023-01-08T22:34:47.144Z,97602.16
2023-01-08T22:37:16.993Z,97595.05
2023-01-08T22:39:46.051Z,97595.91
2023-01-08T22:42:14.364Z,97596.98
2023-01-08T22:44:42.603Z,97596.11
2023-01-08T22:47:10.867Z,97592.81
2023-01-08T22:49:38.942Z,97588.38
2023-01-08T22:52:07.651Z,97587.86
2023-01-08T22:54:35.927Z,97581.09
2023-01-08T22:57:04.037Z,97575.91
2023-01-08T22:59:32.656Z,97568.52
2023-01-08T23:02:01.024Z,97566.98
2023-01-08T23:04:29.035Z,97567.69
2023-01-08T23:06:56.912Z,97563.39
2023-01-08T23:09:25.852Z,97574.20
2023-01-08T23:11:54.428Z,97571.05
2023-01-08T23:14:22.545Z,97564.82
2023-01-08T23:16:50.690Z,97559.80
2023-01-08T23:19:18.858Z,97560.98
2023-01-08T23:21:46.914Z,97553.71
2023-01-08T23:24:15.110Z,97555.09
2023-01-08T23:26:43.300Z,97551.48
2023-01-08T23:29:11.506Z,97544.79
2023-01-08T23:31:39.927Z,97543.58
2023-01-08T23:34:08.887Z,97544.43
2023-01-08T23:36:37.021Z,97533.39
2023-01-08T23:39:05.463Z,97532.88
2023-01-08T23:41:35.037Z,97531.13
2023-01-08T23:44:10.696Z,97524.09
2023-01-08T23:46:39.123Z,97519.61
2023-01-08T23:49:07.919Z,97514.80
2023-01-08T23:51:37.239Z,97517.41
2023-01-08T23:54:05.417Z,97515.02
2023-01-08T23:56:33.462Z,97510.55
2023-01-08T23:59:02.143Z,97502.83
